createdAt,value
2022-12-05T00:00:36.990Z,95.40
2022-12-05T00:06:01.996Z,80.57
2022-12-05T00:27:26.649Z,81.43
2022-12-05T00:32:51.694Z,94.57
2022-12-05T00:38:19.646Z,73.40
2022-12-05T00:43:47.814Z,81.05
2022-12-05T00:49:13.662Z,81.30
2022-12-05T00:54:38.653Z,70.47
2022-12-05T01:00:05.638Z,78.28
2022-12-05T01:05:30.674Z,69.10
2022-12-05T01:10:54.673Z,75.93
2022-12-05T01:16:27.829Z,61.05
2022-12-05T01:21:51.651Z,64.00
2022-12-05T01:27:22.644Z,61.13
2022-12-05T01:32:50.676Z,56.50
2022-12-05T01:38:14.835Z,60.63
2022-12-05T01:43:40.629Z,49.80
2022-12-05T01:49:10.636Z,52.20
2022-12-05T01:54:36.668Z,64.13
2022-12-05T02:00:04.658Z,47.78
2022-12-05T02:05:38.656Z,52.37
2022-12-05T02:11:05.714Z,57.08
2022-12-05T02:16:40.744Z,51.78
2022-12-05T02:22:31.667Z,57.08
2022-12-05T02:28:31.763Z,63.97
2022-12-05T02:34:02.796Z,60.40
2022-12-05T02:39:36.661Z,46.03
2022-12-05T02:45:05.679Z,62.30
2022-12-05T02:50:37.697Z,51.42
2022-12-05T02:56:02.744Z,55.15
2022-12-05T03:01:28.783Z,48.67
2022-12-05T03:07:00.675Z,45.70
2022-12-05T03:12:29.718Z,43.95
2022-12-05T03:18:00.683Z,46.10
2022-12-05T03:23:38.804Z,47.70
2022-12-05T03:29:18.697Z,51.80
2022-12-05T03:34:52.710Z,50.28
2022-12-05T03:40:35.786Z,46.63
2022-12-05T03:46:04.878Z,48.15
2022-12-05T03:51:32.697Z,44.92
2022-12-05T03:57:04.903Z,48.85
2022-12-05T04:02:35.706Z,45.60
2022-12-05T04:08:02.799Z,49.80
2022-12-05T04:13:36.684Z,45.40
2022-12-05T04:19:15.913Z,42.63
2022-12-05T04:24:54.740Z,46.70
2022-12-05T04:30:25.715Z,37.00
2022-12-05T04:35:55.729Z,37.75
2022-12-05T04:41:23.746Z,36.22
2022-12-05T04:46:55.035Z,35.25
2022-12-05T04:52:23.726Z,41.03
2022-12-05T04:57:54.734Z,35.75
2022-12-05T05:03:36.764Z,34.20
2022-12-05T05:09:04.717Z,32.85
2022-12-05T05:14:28.752Z,34.63
2022-12-05T05:19:57.046Z,41.85
2022-12-05T05:25:28.763Z,33.28
2022-12-05T05:30:53.792Z,33.20
2022-12-05T05:36:23.720Z,33.55
2022-12-05T05:41:48.742Z,34.40
2022-12-05T05:47:12.756Z,32.40
2022-12-05T05:52:42.776Z,32.47
2022-12-05T05:58:06.754Z,39.42
2022-12-05T06:03:31.873Z,35.35
2022-12-05T06:09:01.768Z,36.58
2022-12-05T06:14:27.005Z,32.53
2022-12-05T06:19:50.781Z,32.78
2022-12-05T06:25:19.774Z,36.13
2022-12-05T06:30:43.779Z,35.38
2022-12-05T06:36:13.815Z,35.92
2022-12-05T06:41:41.790Z,36.00
2022-12-05T06:47:06.781Z,34.17
2022-12-05T06:52:30.790Z,35.70
2022-12-05T06:57:58.787Z,34.45
2022-12-05T07:03:22.802Z,35.47
2022-12-05T07:08:47.785Z,35.13
2022-12-05T07:14:38.777Z,31.73
2022-12-05T07:20:02.891Z,32.53
2022-12-05T07:25:29.800Z,32.38
2022-12-05T07:30:57.782Z,36.20
2022-12-05T07:36:25.870Z,31.60
2022-12-05T07:41:50.856Z,29.15
2022-12-05T07:47:18.961Z,28.15
2022-12-05T07:52:43.938Z,26.10
2022-12-05T07:58:07.780Z,23.27
2022-12-05T08:03:35.813Z,24.60
2022-12-05T08:09:00.802Z,21.85
2022-12-05T08:14:26.035Z,21.83
2022-12-05T08:19:52.776Z,21.77
2022-12-05T08:25:18.823Z,20.10
2022-12-05T08:30:42.826Z,19.40
2022-12-05T08:36:12.830Z,19.45
2022-12-05T08:41:37.851Z,18.92
2022-12-05T08:47:02.795Z,18.40
2022-12-05T08:52:30.801Z,17.67
2022-12-05T08:57:55.823Z,17.65
2022-12-05T09:03:19.813Z,17.92
2022-12-05T09:08:48.808Z,17.70
2022-12-05T09:14:14.816Z,16.50
2022-12-05T09:19:39.812Z,16.65
2022-12-05T09:25:06.847Z,16.40
2022-12-05T09:30:31.823Z,17.42
2022-12-05T09:35:55.844Z,16.63
2022-12-05T09:41:48.870Z,17.40
2022-12-05T09:47:17.929Z,23.25
2022-12-05T09:52:45.869Z,25.55
2022-12-05T09:58:15.835Z,21.48
2022-12-05T10:03:50.865Z,22.92
2022-12-05T10:09:29.072Z,20.23
2022-12-05T10:15:07.952Z,19.58
2022-12-05T10:20:36.868Z,19.60
2022-12-05T10:26:06.856Z,16.80
2022-12-05T10:31:38.995Z,14.93
2022-12-05T10:37:07.863Z,13.35
2022-12-05T10:42:41.871Z,13.00
2022-12-05T10:48:09.881Z,13.13
2022-12-05T10:53:38.935Z,13.35
2022-12-05T10:59:04.856Z,13.90
2022-12-05T11:04:44.920Z,12.95
2022-12-05T11:10:24.959Z,13.23
2022-12-05T11:15:56.008Z,11.40
2022-12-05T11:21:30.852Z,12.38
2022-12-05T11:27:02.095Z,11.38
2022-12-05T11:32:31.013Z,15.23
2022-12-05T11:38:02.868Z,12.75
2022-12-05T11:43:52.903Z,12.15
2022-12-05T11:49:31.871Z,11.70
2022-12-05T11:55:06.541Z,11.18
2022-12-05T12:00:36.906Z,11.23
2022-12-05T12:06:14.900Z,11.05
2022-12-05T12:11:47.880Z,10.43
2022-12-05T12:17:23.965Z,9.73
2022-12-05T12:23:09.015Z,9.23
2022-12-05T12:28:54.895Z,9.77
2022-12-05T12:34:38.872Z,9.95
2022-12-05T12:40:07.905Z,9.48
2022-12-05T12:45:56.955Z,9.40
2022-12-05T12:51:25.897Z,10.20
2022-12-05T12:57:08.172Z,9.88
2022-12-05T13:02:41.967Z,8.82
2022-12-05T13:08:13.995Z,8.38
2022-12-05T13:13:42.920Z,8.98
2022-12-05T13:19:11.903Z,9.52
2022-12-05T13:24:40.925Z,8.95
2022-12-05T13:30:13.553Z,8.57
2022-12-05T13:35:59.923Z,9.10
2022-12-05T13:41:37.916Z,10.15
2022-12-05T13:47:05.972Z,9.57
2022-12-05T13:52:36.998Z,9.93
2022-12-05T13:58:04.946Z,11.60
2022-12-05T14:04:04.952Z,10.68
2022-12-05T14:10:04.935Z,10.40
2022-12-05T14:15:41.939Z,10.18
2022-12-05T14:21:21.934Z,10.80
2022-12-05T14:27:15.003Z,11.60
2022-12-05T14:32:43.977Z,10.52
2022-12-05T14:38:13.002Z,10.63
2022-12-05T14:43:46.952Z,10.18
2022-12-05T14:49:48.449Z,10.35
2022-12-05T14:55:25.074Z,10.20
2022-12-05T15:00:56.056Z,10.60
2022-12-05T15:06:26.979Z,10.57
2022-12-05T15:11:51.969Z,10.40
2022-12-05T15:17:20.037Z,10.55
2022-12-05T15:22:46.967Z,11.15
2022-12-05T15:28:21.955Z,10.10
2022-12-05T15:34:01.067Z,11.38
2022-12-05T15:39:34.968Z,10.95
2022-12-05T15:45:00.270Z,12.60
2022-12-05T15:50:32.025Z,21.92
2022-12-05T15:55:59.942Z,18.25
2022-12-05T16:01:29.075Z,15.20
2022-12-05T16:06:59.019Z,14.32
2022-12-05T16:12:36.996Z,14.75
2022-12-05T16:18:04.981Z,14.80
2022-12-05T16:23:44.004Z,15.35
2022-12-05T16:29:15.975Z,19.55
2022-12-05T16:34:44.087Z,26.30
2022-12-05T16:40:13.235Z,33.15
2022-12-05T16:45:48.987Z,33.60
2022-12-05T16:51:35.020Z,32.55
2022-12-05T16:57:03.041Z,29.23
2022-12-05T17:02:31.088Z,34.47
2022-12-05T17:07:56.093Z,21.92
2022-12-05T17:13:23.067Z,33.15
2022-12-05T17:18:48.038Z,43.22
2022-12-05T17:24:13.033Z,33.33
2022-12-05T17:29:41.009Z,27.17
2022-12-05T17:35:07.077Z,26.42
2022-12-05T17:40:32.024Z,30.20
2022-12-05T17:46:01.011Z,23.08
2022-12-05T17:51:27.012Z,19.27
2022-12-05T17:56:52.037Z,20.25
2022-12-05T18:02:22.055Z,20.08
2022-12-05T18:07:46.190Z,18.05
2022-12-05T18:13:11.017Z,18.13
2022-12-05T18:18:39.027Z,18.52
2022-12-05T18:24:04.032Z,16.33
2022-12-05T18:29:35.031Z,17.67
2022-12-05T18:35:08.677Z,17.20
2022-12-05T18:40:37.117Z,15.75
2022-12-05T18:46:05.193Z,15.95
2022-12-05T18:51:35.036Z,14.73
2022-12-05T18:57:00.042Z,15.20
2022-12-05T19:02:25.095Z,14.82
2022-12-05T19:07:53.085Z,14.55
2022-12-05T19:13:18.206Z,13.95
2022-12-05T19:18:44.057Z,13.85
2022-12-05T19:24:12.050Z,17.25
2022-12-05T19:29:43.060Z,13.60
2022-12-05T19:35:08.055Z,13.63
2022-12-05T19:40:35.058Z,12.82
2022-12-05T19:46:00.207Z,10.55
2022-12-05T19:51:25.097Z,10.70
2022-12-05T19:56:53.144Z,11.10
2022-12-05T20:02:17.149Z,11.88
2022-12-05T20:07:42.265Z,13.95
2022-12-05T20:13:44.657Z,13.55
2022-12-05T20:18:55.097Z,12.60
2022-12-05T20:24:21.497Z,10.48
2022-12-05T20:29:55.084Z,10.40
2022-12-05T20:35:24.289Z,9.93
2022-12-05T20:40:49.075Z,9.50
2022-12-05T20:46:20.223Z,15.85
2022-12-05T20:51:46.119Z,11.57
2022-12-05T20:57:11.217Z,9.35
2022-12-05T21:02:38.151Z,9.52
2022-12-05T21:08:09.207Z,10.23
2022-12-05T21:13:41.270Z,10.40
2022-12-05T21:19:09.094Z,9.48
2022-12-05T21:24:35.092Z,8.57
2022-12-05T21:30:06.137Z,8.63
2022-12-05T21:35:34.133Z,8.50
2022-12-05T21:40:58.113Z,8.88
2022-12-05T21:46:23.418Z,8.35
2022-12-05T21:51:50.104Z,8.15
2022-12-05T21:57:15.149Z,8.15
2022-12-05T22:02:40.148Z,8.85
2022-12-05T22:08:08.191Z,9.10
2022-12-05T22:13:32.117Z,9.02
2022-12-05T22:18:57.106Z,10.35
2022-12-05T22:24:24.250Z,9.35
2022-12-05T22:29:55.136Z,8.82
2022-12-05T22:35:20.157Z,9.87
2022-12-05T22:40:47.134Z,9.80
2022-12-05T22:46:16.452Z,9.20
2022-12-05T22:51:40.146Z,8.70
2022-12-05T22:57:08.132Z,9.05
2022-12-05T23:02:32.172Z,9.02
2022-12-05T23:07:57.196Z,10.88
2022-12-05T23:13:26.283Z,10.57
2022-12-05T23:18:58.149Z,24.02
2022-12-05T23:24:24.130Z,24.00
2022-12-05T23:29:58.406Z,17.42
2022-12-05T23:35:24.159Z,23.40
2022-12-05T23:40:48.327Z,22.92
2022-12-05T23:46:17.215Z,16.65
2022-12-05T23:51:47.171Z,28.75
2022-12-05T23:57:17.277Z,18.20
